Time;durP1;ratioP1;P1;durP2;ratioP2;P2;SDS_P1;SDS_P2;PMS_P1;PMS_P2;Temp;Humidity;BMP_temperature;BMP_pressure;BME280_temperature;BME280_humidity;BME280_pressure;Samples;Min_cycle;Max_cycle;Signal;HPM_P1;HPM_P2
2023/09/12 00:00:53;;;;;;;0.20;0.20;;;;;;;20.66;100.00;99603.06;5065220;28;20078;-62
2023/09/12 00:03:20;;;;;;;0.17;0.17;;;;;;;20.67;100.00;99604.78;5068713;28;20102;-63
2023/09/12 00:05:56;;;;;;;0.20;0.20;;;;;;;20.66;100.00;99594.09;5068051;28;21324;-63
2023/09/12 00:08:23;;;;;;;0.10;0.10;;;;;;;20.64;100.00;99601.47;5073105;28;20029;-63
2023/09/12 00:11:06;;;;;;;0.10;0.10;;;;;;;20.61;100.00;99605.28;5065817;28;20071;-63
2023/09/12 00:13:32;;;;;;;0.20;0.20;;;;;;;20.59;100.00;99596.44;5066567;28;20067;-63
2023/09/12 00:15:59;;;;;;;0.10;0.10;;;;;;;20.59;100.00;99593.72;5053759;28;20059;-62
2023/09/12 00:18:25;;;;;;;0.20;0.20;;;;;;;20.56;100.00;99602.09;5047175;28;20021;-63
2023/09/12 00:20:51;;;;;;;0.20;0.20;;;;;;;20.55;100.00;99589.56;5048356;28;20032;-63
2023/09/12 00:23:18;;;;;;;0.10;0.10;;;;;;;20.52;100.00;99600.63;5051464;28;20119;-63
2023/09/12 00:25:43;;;;;;;0.10;0.10;;;;;;;20.50;100.00;99597.19;5063162;28;20032;-63
2023/09/12 00:28:09;;;;;;;0.10;0.10;;;;;;;20.46;100.00;99600.25;5051776;28;20043;-62
2023/09/12 00:30:34;;;;;;;0.10;0.10;;;;;;;20.46;100.00;99598.38;5048509;28;20539;-63
2023/09/12 00:32:59;;;;;;;0.20;0.20;;;;;;;20.52;100.00;99600.63;5047281;28;20029;-63
2023/09/12 00:35:25;;;;;;;0.20;0.20;;;;;;;20.56;100.00;99599.38;5056930;28;20248;-62
2023/09/12 00:37:50;;;;;;;0.10;0.10;;;;;;;20.60;100.00;99595.47;5063744;28;20396;-63
2023/09/12 00:40:15;;;;;;;0.10;0.10;;;;;;;20.64;100.00;99594.22;5047665;28;20076;-63
2023/09/12 00:42:41;;;;;;;0.20;0.20;;;;;;;20.66;100.00;99591.38;5048229;28;20094;-63
2023/09/12 00:45:07;;;;;;;0.17;0.17;;;;;;;20.65;100.00;99593.25;5067097;28;20059;-63
2023/09/12 00:47:33;;;;;;;0.20;0.20;;;;;;;20.63;100.00;99597.03;5086168;28;20024;-62
2023/09/12 00:50:00;;;;;;;0.20;0.20;;;;;;;20.63;100.00;99594.34;5057473;28;20036;-62
2023/09/12 00:52:26;;;;;;;0.20;0.20;;;;;;;20.64;100.00;99596.09;5054579;28;20143;-63
2023/09/12 00:54:52;;;;;;;0.20;0.20;;;;;;;20.65;100.00;99590.56;5067391;28;20039;-62
2023/09/12 00:57:18;;;;;;;0.20;0.20;;;;;;;20.60;100.00;99587.34;5066937;28;20032;-63
2023/09/12 00:59:44;;;;;;;0.10;0.10;;;;;;;20.54;100.00;99593.22;5071272;28;20036;-62
2023/09/12 01:02:10;;;;;;;0.10;0.10;;;;;;;20.41;100.00;99576.28;5067903;28;20086;-62
2023/09/12 01:04:36;;;;;;;0.20;0.20;;;;;;;20.42;100.00;99582.56;5070716;28;20078;-61
2023/09/12 01:07:05;;;;;;;0.10;0.10;;;;;;;20.37;100.00;99585.63;5069553;28;20039;-62
2023/09/12 01:09:34;;;;;;;0.10;0.10;;;;;;;20.33;100.00;99581.44;5068984;28;20056;-62
2023/09/12 01:12:02;;;;;;;0.10;0.10;;;;;;;20.30;100.00;99573.56;5070910;28;20056;-63
2023/09/12 01:14:28;;;;;;;0.10;0.10;;;;;;;20.27;100.00;99573.81;5056471;28;20468;-63
2023/09/12 01:16:54;;;;;;;0.10;0.10;;;;;;;20.25;100.00;99574.91;5069912;28;20024;-63
2023/09/12 01:19:20;;;;;;;0.20;0.20;;;;;;;20.24;100.00;99570.50;5058741;28;20029;-63
2023/09/12 01:22:15;;;;;;;0.10;0.10;;;;;;;20.23;100.00;99585.84;5050873;28;20140;-63
2023/09/12 01:25:06;;;;;;;0.10;0.10;;;;;;;20.31;100.00;99590.66;5052700;28;20090;-63
2023/09/12 01:27:37;;;;;;;0.10;0.10;;;;;;;20.34;100.00;99588.56;5067257;28;20068;-63
2023/09/12 01:30:05;;;;;;;0.13;0.13;;;;;;;20.36;100.00;99583.06;5068689;28;20461;-63
2023/09/12 01:32:32;;;;;;;0.20;0.20;;;;;;;20.38;100.00;99587.34;5068662;28;20027;-63
2023/09/12 01:34:58;;;;;;;0.10;0.10;;;;;;;20.37;100.00;99582.94;5062081;28;20048;-62
2023/09/12 01:37:23;;;;;;;0.10;0.10;;;;;;;20.33;100.00;99581.44;5070532;28;20064;-63
2023/09/12 01:39:49;;;;;;;0.20;0.20;;;;;;;20.43;100.00;99577.03;5066797;28;20060;-62
2023/09/12 01:42:20;;;;;;;0.17;0.17;;;;;;;20.37;100.00;99585.63;5050512;28;20499;-62
2023/09/12 01:44:46;;;;;;;0.10;0.10;;;;;;;20.28;100.00;99580.94;5054041;28;20492;-63
2023/09/12 01:47:14;;;;;;;0.10;0.10;;;;;;;20.21;100.00;99582.44;5070331;28;20150;-63
2023/09/12 01:49:43;;;;;;;0.10;0.10;;;;;;;20.12;100.00;99579.53;5062090;28;20560;-63
2023/09/12 01:52:10;;;;;;;0.10;0.10;;;;;;;19.99;100.00;99565.28;5051891;28;20431;-62
2023/09/12 01:54:37;;;;;;;0.10;0.10;;;;;;;19.98;100.00;99572.53;5052706;28;20110;-63
2023/09/12 01:57:03;;;;;;;0.20;0.20;;;;;;;19.91;100.00;99570.41;5050357;28;20144;-62
2023/09/12 01:59:29;;;;;;;0.20;0.20;;;;;;;19.85;100.00;99576.28;5061189;28;20106;-63
2023/09/12 02:01:55;;;;;;;0.17;0.17;;;;;;;19.83;100.00;99572.84;5057637;28;20495;-62
2023/09/12 02:04:20;;;;;;;0.13;0.13;;;;;;;19.79;100.00;99574.91;5053413;28;20029;-63
2023/09/12 02:06:45;;;;;;;0.10;0.10;;;;;;;19.76;100.00;99577.00;5070614;28;20040;-62
2023/09/12 02:09:11;;;;;;;0.20;0.20;;;;;;;19.76;100.00;99587.78;5068126;28;20036;-61
2023/09/12 02:11:36;;;;;;;0.20;0.20;;;;;;;19.74;100.00;99585.19;5056101;28;20041;-62
2023/09/12 02:14:02;;;;;;;0.10;0.10;;;;;;;19.67;100.00;99574.03;5069344;28;20166;-62
2023/09/12 02:16:29;;;;;;;0.20;0.20;;;;;;;19.73;100.00;99583.50;5062852;28;20417;-63
2023/09/12 02:18:54;;;;;;;0.10;0.10;;;;;;;19.71;100.00;99585.44;5067873;28;20376;-62
2023/09/12 02:21:20;;;;;;;0.20;0.20;;;;;;;19.72;100.00;99581.75;5067214;28;20028;-63
2023/09/12 02:23:45;;;;;;;0.20;0.20;;;;;;;19.72;100.00;99587.16;5062486;28;20070;-63
2023/09/12 02:26:10;;;;;;;0.15;0.15;;;;;;;19.72;100.00;99592.56;5067390;28;20118;-63
2023/09/12 02:28:36;;;;;;;0.10;0.10;;;;;;;19.55;100.00;99560.63;5051297;28;20484;-63
2023/09/12 02:31:01;;;;;;;0.20;0.20;;;;;;;19.71;100.00;99590.84;5061405;28;20040;-62
2023/09/12 02:33:27;;;;;;;0.10;0.10;;;;;;;19.69;100.00;99595.50;5069126;28;20028;-62
2023/09/12 02:35:52;;;;;;;0.20;0.20;;;;;;;19.67;100.00;99590.22;5048549;28;20024;-62
2023/09/12 02:38:18;;;;;;;0.20;0.20;;;;;;;19.65;100.00;99585.94;5069151;28;20032;-62
2023/09/12 02:40:43;;;;;;;0.10;0.10;;;;;;;19.64;100.00;99584.19;5055064;28;20025;-62
2023/09/12 02:43:09;;;;;;;0.20;0.20;;;;;;;19.64;100.00;99578.78;5063588;28;20056;-62
2023/09/12 02:45:34;;;;;;;0.10;0.10;;;;;;;19.60;100.00;99575.47;5062835;28;20033;-63
2023/09/12 02:48:00;;;;;;;0.20;0.20;;;;;;;19.59;100.00;99581.84;5061210;28;20127;-62
2023/09/12 02:50:25;;;;;;;0.20;0.20;;;;;;;19.56;100.00;99587.47;5069187;28;20345;-63
2023/09/12 02:52:50;;;;;;;0.10;0.10;;;;;;;19.56;100.00;99583.91;5068613;28;20039;-62
2023/09/12 02:55:16;;;;;;;0.20;0.20;;;;;;;19.56;100.00;99582.09;5063209;28;20043;-62
2023/09/12 02:57:41;;;;;;;0.13;0.13;;;;;;;19.53;100.00;99587.72;5069357;28;20094;-62
2023/09/12 03:00:08;;;;;;;0.15;0.15;;;;;;;19.50;100.00;99581.69;5068541;28;20527;-62
2023/09/12 03:02:34;;;;;;;0.20;0.20;;;;;;;19.45;100.00;99576.66;5067041;28;20380;-62
2023/09/12 03:05:01;;;;;;;0.20;0.20;;;;;;;19.46;100.00;99588.28;5054360;28;20043;-63
2023/09/12 03:07:27;;;;;;;0.20;0.20;;;;;;;19.42;100.00;99581.41;5068407;28;20028;-62
2023/09/12 03:09:52;;;;;;;0.10;0.10;;;;;;;19.44;100.00;99582.13;5064668;28;20024;-63
2023/09/12 03:12:17;;;;;;;0.20;0.20;;;;;;;19.45;100.00;99586.56;5069483;28;20044;-62
2023/09/12 03:14:43;;;;;;;0.20;0.20;;;;;;;19.45;100.00;99573.09;5065854;28;20112;-63
2023/09/12 03:17:08;;;;;;;0.20;0.20;;;;;;;19.44;100.00;99580.31;5046254;28;20419;-63
2023/09/12 03:19:33;;;;;;;0.20;0.20;;;;;;;19.45;100.00;99583.88;5048224;28;20029;-63
2023/09/12 03:21:59;;;;;;;0.20;0.20;;;;;;;19.39;100.00;99573.53;5047763;28;20029;-63
2023/09/12 03:24:25;;;;;;;0.10;0.10;;;;;;;19.44;100.00;99590.22;5048150;28;20025;-63
2023/09/12 03:26:51;;;;;;;0.20;0.20;;;;;;;19.37;100.00;99580.91;5062558;28;20032;-62
2023/09/12 03:29:16;;;;;;;0.20;0.20;;;;;;;19.28;100.00;99581.53;5047050;28;20024;-62
2023/09/12 03:31:42;;;;;;;0.10;0.10;;;;;;;19.22;100.00;99584.72;5048268;28;20380;-62
2023/09/12 03:34:07;;;;;;;0.20;0.20;;;;;;;19.23;100.00;99589.09;5057028;28;20064;-62
2023/09/12 03:36:33;;;;;;;0.20;0.20;;;;;;;19.22;100.00;99582.00;5049135;28;20399;-62
2023/09/12 03:38:58;;;;;;;0.20;0.20;;;;;;;19.21;100.00;99570.34;5047373;28;20111;-63
2023/09/12 03:41:25;;;;;;;0.20;0.20;;;;;;;19.22;100.00;99571.22;5065003;28;20039;-63
2023/09/12 03:43:53;;;;;;;0.20;0.20;;;;;;;19.28;100.00;99578.84;5067890;28;20025;-63
2023/09/12 03:46:18;;;;;;;0.20;0.20;;;;;;;19.33;100.00;99584.78;5062873;28;20029;-63
2023/09/12 03:48:44;;;;;;;0.17;0.17;;;;;;;19.40;100.00;99580.66;5060894;28;20032;-63
2023/09/12 03:51:09;;;;;;;0.20;0.20;;;;;;;19.49;100.00;99574.56;5067130;28;20055;-63
2023/09/12 03:53:34;;;;;;;0.20;0.20;;;;;;;19.51;100.00;99584.28;5062691;28;20434;-63
2023/09/12 03:56:00;;;;;;;0.20;0.20;;;;;;;19.49;100.00;99582.66;5069596;28;20090;-63
2023/09/12 03:58:25;;;;;;;0.20;0.20;;;;;;;19.41;100.00;99585.06;5074510;28;20145;-63
2023/09/12 04:00:51;;;;;;;0.20;0.20;;;;;;;19.41;100.00;99582.38;5081589;28;20016;-63
2023/09/12 04:03:16;;;;;;;0.10;0.10;;;;;;;19.40;100.00;99586.06;5067605;28;20115;-64
2023/09/12 04:05:42;;;;;;;0.20;0.20;;;;;;;19.43;100.00;99583.13;5066298;28;20028;-63
2023/09/12 04:08:07;;;;;;;0.20;0.20;;;;;;;19.46;100.00;99590.97;5063346;28;20067;-63
2023/09/12 04:10:32;;;;;;;0.20;0.20;;;;;;;19.44;100.00;99582.13;5066131;28;20024;-63
2023/09/12 04:12:58;;;;;;;0.13;0.13;;;;;;;19.51;100.00;99588.78;5062523;28;20027;-63
2023/09/12 04:15:23;;;;;;;0.20;0.20;;;;;;;19.47;100.00;99588.16;5065859;28;20122;-63
2023/09/12 04:17:49;;;;;;;0.15;0.15;;;;;;;19.42;100.00;99576.03;5065591;28;20086;-63
2023/09/12 04:20:14;;;;;;;0.20;0.20;;;;;;;19.43;100.00;99588.53;5050850;28;20151;-63
2023/09/12 04:22:42;;;;;;;0.20;0.20;;;;;;;19.41;100.00;99587.75;5065408;28;20125;-62
2023/09/12 04:25:08;;;;;;;0.13;0.13;;;;;;;19.36;100.00;99588.13;5064097;28;20388;-63
2023/09/12 04:27:34;;;;;;;0.20;0.20;;;;;;;19.32;100.00;99583.06;5066482;28;20028;-63
2023/09/12 04:29:59;;;;;;;0.20;0.20;;;;;;;19.28;100.00;99593.19;5058033;28;20029;-62
2023/09/12 04:32:25;;;;;;;0.10;0.10;;;;;;;19.14;100.00;99596.03;5050173;28;20037;-63
2023/09/12 04:34:50;;;;;;;0.20;0.20;;;;;;;19.08;100.00;99595.63;5061981;28;20025;-63
2023/09/12 04:37:16;;;;;;;0.20;0.20;;;;;;;18.98;100.00;99600.84;5045377;28;20106;-63
2023/09/12 04:39:42;;;;;;;0.20;0.20;;;;;;;18.97;100.00;99596.44;5066033;28;20032;-63
2023/09/12 04:42:07;;;;;;;0.20;0.20;;;;;;;18.95;100.00;99594.81;5070201;28;20364;-63
2023/09/12 04:44:37;;;;;;;0.20;0.20;;;;;;;18.93;100.00;99602.19;5068905;28;20025;-62
2023/09/12 04:47:02;;;;;;;0.20;0.20;;;;;;;18.87;100.00;99605.31;5058589;28;20714;-62
2023/09/12 04:49:28;;;;;;;0.20;0.20;;;;;;;18.84;100.00;99603.72;5067712;28;20028;-63
2023/09/12 04:51:53;;;;;;;0.20;0.20;;;;;;;18.82;100.00;99605.66;5055385;28;20199;-64
2023/09/12 04:54:19;;;;;;;0.20;0.20;;;;;;;18.83;100.00;99611.91;5059300;28;20411;-63
2023/09/12 04:56:44;;;;;;;0.20;0.20;;;;;;;18.81;100.00;99614.72;5066202;28;20487;-62
2023/09/12 04:59:09;;;;;;;0.20;0.20;;;;;;;18.80;100.00;99618.38;5065158;28;20032;-63
2023/09/12 05:01:35;;;;;;;0.20;0.20;;;;;;;18.81;100.00;99619.22;5040885;28;20029;-62
2023/09/12 05:04:00;;;;;;;0.20;0.20;;;;;;;18.84;100.00;99617.19;5064326;28;20051;-63
2023/09/12 05:06:26;;;;;;;0.20;0.20;;;;;;;18.84;100.00;99616.31;5070439;28;21917;-62
2023/09/12 05:08:51;;;;;;;0.20;0.20;;;;;;;18.81;100.00;99613.84;5044916;28;20029;-62
2023/09/12 05:11:17;;;;;;;0.20;0.20;;;;;;;18.81;100.00;99625.50;5063974;28;20079;-63
2023/09/12 05:13:42;;;;;;;0.10;0.10;;;;;;;18.87;100.00;99619.66;5059777;28;20048;-63
2023/09/12 05:16:08;;;;;;;0.20;0.20;;;;;;;18.82;100.00;99615.56;5055644;28;20028;-62
2023/09/12 05:18:33;;;;;;;0.20;0.20;;;;;;;18.86;100.00;99622.47;5066576;28;20141;-62
2023/09/12 05:20:58;;;;;;;0.20;0.20;;;;;;;18.88;100.00;99621.34;5064365;28;20024;-62
2023/09/12 05:23:24;;;;;;;0.13;0.13;;;;;;;18.89;100.00;99614.16;5067516;28;20020;-63
2023/09/12 05:25:49;;;;;;;0.20;0.20;;;;;;;18.96;100.00;99618.97;5064942;28;20466;-63
2023/09/12 05:28:15;;;;;;;0.20;0.20;;;;;;;19.13;100.00;99606.94;5054670;28;20058;-62
2023/09/12 05:30:42;;;;;;;0.20;0.20;;;;;;;19.20;100.00;99614.47;5046771;28;20028;-62
2023/09/12 05:33:08;;;;;;;0.20;0.20;;;;;;;19.24;100.00;99607.88;5047715;28;20099;-62
2023/09/12 05:35:33;;;;;;;0.20;0.20;;;;;;;19.32;100.00;99615.44;5064170;28;20136;-62
2023/09/12 05:37:58;;;;;;;0.20;0.20;;;;;;;19.36;100.00;99611.53;5067363;28;20268;-62
2023/09/12 05:40:24;;;;;;;0.20;0.20;;;;;;;19.42;100.00;99605.69;5064669;28;20048;-63
2023/09/12 05:42:49;;;;;;;0.20;0.20;;;;;;;19.48;100.00;99607.91;5070657;28;20028;-63
2023/09/12 05:45:15;;;;;;;0.20;0.20;;;;;;;19.57;100.00;99605.38;5069222;28;20029;-62
2023/09/12 05:47:40;;;;;;;0.13;0.13;;;;;;;19.67;100.00;99616.31;5070359;28;20549;-62
2023/09/12 05:50:06;;;;;;;0.10;0.10;;;;;;;19.74;100.00;99616.72;5052184;28;20115;-63
2023/09/12 05:52:33;;;;;;;0.10;0.10;;;;;;;19.87;100.00;99620.22;5069554;28;20039;-62
2023/09/12 05:54:58;;;;;;;0.10;0.10;;;;;;;20.03;100.00;99637.81;5066345;28;20032;-62
2023/09/12 05:57:23;;;;;;;0.20;0.20;;;;;;;20.14;100.00;99636.97;5069627;28;20031;-63
2023/09/12 05:59:50;;;;;;;0.20;0.20;;;;;;;20.22;100.00;99651.66;5066442;28;20403;-62
2023/09/12 06:02:16;;;;;;;0.10;0.10;;;;;;;20.28;100.00;99644.94;5068115;28;20036;-62
2023/09/12 06:04:41;;;;;;;0.20;0.20;;;;;;;20.32;100.00;99647.25;5065288;28;20035;-63
2023/09/12 06:07:07;;;;;;;0.10;0.10;;;;;;;20.46;100.00;99643.47;5065148;28;20025;-62
2023/09/12 06:09:32;;;;;;;0.20;0.20;;;;;;;20.57;100.00;99646.19;5065622;28;20032;-62
2023/09/12 06:11:57;;;;;;;0.20;0.20;;;;;;;20.65;100.00;99655.41;5062851;28;20492;-62
2023/09/12 06:14:23;;;;;;;0.20;0.20;;;;;;;20.79;100.00;99647.06;5061325;28;20184;-63
2023/09/12 06:16:48;;;;;;;0.10;0.10;;;;;;;20.85;100.00;99652.00;5055048;28;20379;-62
2023/09/12 06:19:19;;;;;;;0.10;0.10;;;;;;;20.92;100.00;99647.78;5049779;28;20370;-62
2023/09/12 06:21:45;;;;;;;0.20;0.20;;;;;;;21.02;100.00;99652.50;5051636;28;20540;-61
2023/09/12 06:24:16;;;;;;;0.10;0.10;;;;;;;21.18;100.00;99647.56;5059681;28;20035;-63
2023/09/12 06:26:42;;;;;;;0.10;0.10;;;;;;;21.29;100.00;99640.28;5068271;28;20758;-62
2023/09/12 06:29:07;;;;;;;0.13;0.13;;;;;;;21.50;100.00;99649.31;5052112;28;20060;-62
2023/09/12 06:31:33;;;;;;;0.20;0.20;;;;;;;21.74;100.00;99643.72;5034175;28;20029;-62
2023/09/12 06:33:59;;;;;;;0.10;0.10;;;;;;;22.05;100.00;99645.56;5063968;28;20052;-63
2023/09/12 06:36:25;;;;;;;0.10;0.10;;;;;;;22.27;100.00;99634.63;5053422;28;20506;-62
2023/09/12 06:38:51;;;;;;;0.15;0.15;;;;;;;22.55;100.00;99636.69;5061590;28;20028;-63
2023/09/12 06:41:19;;;;;;;0.10;0.10;;;;;;;22.92;100.00;99626.13;5063035;28;20407;-62
2023/09/12 06:43:45;;;;;;;0.10;0.10;;;;;;;23.55;99.16;99619.47;5067507;28;20037;-63
2023/09/12 06:46:10;;;;;;;0.10;0.10;;;;;;;24.86;92.70;99632.22;5056204;28;20461;-62
2023/09/12 06:48:35;;;;;;;0.10;0.10;;;;;;;26.01;83.22;99631.53;5061271;28;20028;-62
2023/09/12 06:51:05;;;;;;;0.10;0.10;;;;;;;26.82;76.29;99642.97;5049833;28;20040;-62
2023/09/12 06:53:31;;;;;;;0.10;0.10;;;;;;;27.58;71.92;99643.84;5058459;28;20024;-62
2023/09/12 06:55:57;;;;;;;0.10;0.10;;;;;;;28.21;70.13;99644.13;5041097;28;20307;-62
2023/09/12 06:58:22;;;;;;;0.10;0.10;;;;;;;28.97;66.65;99650.94;5060068;28;20025;-62
2023/09/12 07:00:48;;;;;;;0.10;0.10;;;;;;;29.81;62.06;99639.28;5062354;28;20024;-62
2023/09/12 07:03:14;;;;;;;0.10;0.10;;;;;;;30.50;60.05;99645.47;5057012;28;20035;-62
2023/09/12 07:05:40;;;;;;;0.10;0.10;;;;;;;30.96;58.36;99653.59;5063499;28;20043;-62
2023/09/12 07:08:06;;;;;;;0.10;0.10;;;;;;;30.89;57.14;99654.38;5057053;28;20490;-62
2023/09/12 07:10:32;;;;;;;0.10;0.10;;;;;;;30.53;56.82;99653.34;5066313;28;20036;-62
2023/09/12 07:12:57;;;;;;;0.10;0.10;;;;;;;30.32;56.32;99650.44;5066853;28;20028;-62
2023/09/12 07:15:22;;;;;;;0.10;0.10;;;;;;;30.13;57.25;99650.88;5067067;28;20024;-62
2023/09/12 07:17:48;;;;;;;0.10;0.10;;;;;;;30.12;57.90;99654.69;5068398;28;20107;-62
2023/09/12 07:20:15;;;;;;;0.10;0.10;;;;;;;30.32;57.10;99653.19;5067911;28;20423;-62
2023/09/12 07:22:41;;;;;;;0.00;0.00;;;;;;;30.34;57.89;99642.88;5065661;28;20044;-62
2023/09/12 07:25:09;;;;;;;0.10;0.10;;;;;;;30.40;57.68;99653.09;5062465;28;20020;-62
2023/09/12 07:27:34;;;;;;;0.10;0.10;;;;;;;30.53;56.70;99657.97;5053386;28;20298;-63
2023/09/12 07:30:00;;;;;;;0.10;0.10;;;;;;;30.62;56.26;99659.59;5049039;28;20029;-62
2023/09/12 07:32:25;;;;;;;0.00;0.00;;;;;;;30.64;55.52;99650.13;5048083;28;20809;-62
2023/09/12 07:34:51;;;;;;;0.00;0.00;;;;;;;30.40;56.05;99655.84;5050666;28;20033;-62
2023/09/12 07:37:16;;;;;;;0.03;0.03;;;;;;;30.08;57.06;99653.34;5055610;28;20020;-63
2023/09/12 07:39:41;;;;;;;0.00;0.00;;;;;;;30.23;56.98;99662.50;5065225;28;20379;-62
2023/09/12 07:42:07;;;;;;;0.00;0.00;;;;;;;30.37;56.22;99667.22;5029430;28;20031;-62
2023/09/12 07:44:32;;;;;;;0.03;0.03;;;;;;;30.64;55.46;99666.59;5056441;28;20023;-62
2023/09/12 07:46:58;;;;;;;0.00;0.00;;;;;;;30.77;54.93;99666.84;5067841;28;20020;-61
2023/09/12 07:49:26;;;;;;;0.10;0.10;;;;;;;30.81;55.27;99670.09;5066780;28;20387;-62
2023/09/12 07:51:51;;;;;;;0.00;0.00;;;;;;;30.87;54.06;99667.44;5062159;28;20107;-62
2023/09/12 07:54:17;;;;;;;0.00;0.00;;;;;;;30.89;55.39;99665.38;5063825;28;20812;-62
2023/09/12 07:56:43;;;;;;;0.00;0.00;;;;;;;31.16;54.31;99671.25;5066601;28;20025;-62
2023/09/12 07:59:10;;;;;;;0.00;0.00;;;;;;;31.24;52.90;99674.75;5056396;28;20090;-62
2023/09/12 08:01:35;;;;;;;0.00;0.00;;;;;;;31.38;53.73;99675.84;5062413;28;20032;-62
2023/09/12 08:04:00;;;;;;;0.00;0.00;;;;;;;31.30;54.13;99684.16;5065703;28;20036;-62
2023/09/12 08:06:26;;;;;;;0.00;0.00;;;;;;;31.46;52.28;99689.47;5065977;28;20537;-62
2023/09/12 08:08:52;;;;;;;0.00;0.00;;;;;;;31.46;53.31;99690.34;5050446;28;20107;-62
2023/09/12 08:11:18;;;;;;;0.00;0.00;;;;;;;31.49;52.20;99694.59;5063479;28;20434;-62
2023/09/12 08:13:43;;;;;;;0.00;0.00;;;;;;;31.33;53.59;99695.66;5051894;28;20036;-62
2023/09/12 08:16:09;;;;;;;0.00;0.00;;;;;;;31.18;52.49;99693.91;5061789;28;20113;-63
2023/09/12 08:18:34;;;;;;;0.00;0.00;;;;;;;30.85;51.78;99688.78;5045291;28;20025;-63
2023/09/12 08:20:59;;;;;;;0.00;0.00;;;;;;;30.48;53.92;99699.72;5058116;28;20051;-63
2023/09/12 08:23:25;;;;;;;0.00;0.00;;;;;;;30.25;56.11;99693.38;5073387;28;20120;-62
2023/09/12 08:25:51;;;;;;;0.00;0.00;;;;;;;30.10;57.51;99691.56;5060189;28;20460;-62
2023/09/12 08:28:16;;;;;;;0.00;0.00;;;;;;;30.07;56.58;99700.16;5072513;28;20036;-62
2023/09/12 08:30:44;;;;;;;0.00;0.00;;;;;;;30.32;57.00;99698.97;5048577;28;20083;-62
2023/09/12 08:33:10;;;;;;;0.00;0.00;;;;;;;30.66;55.71;99692.00;5045364;28;20033;-62
2023/09/12 08:35:35;;;;;;;0.00;0.00;;;;;;;30.77;54.43;99680.59;5051239;28;20124;-62
2023/09/12 08:38:01;;;;;;;0.00;0.00;;;;;;;31.11;53.84;99679.22;5062253;28;20391;-62
2023/09/12 08:40:26;;;;;;;0.00;0.00;;;;;;;31.72;50.68;99684.31;5045993;28;20028;-62
2023/09/12 08:42:52;;;;;;;0.00;0.00;;;;;;;32.33;50.07;99672.78;5046351;28;20369;-62
2023/09/12 08:45:19;;;;;;;0.00;0.00;;;;;;;32.87;48.26;99675.81;5061464;28;20052;-62
2023/09/12 08:47:45;;;;;;;0.00;0.00;;;;;;;33.11;46.89;99673.47;5048073;28;20476;-62
2023/09/12 08:50:13;;;;;;;0.00;0.00;;;;;;;32.95;47.58;99673.78;5046944;28;20724;-62
2023/09/12 08:52:40;;;;;;;0.00;0.00;;;;;;;33.00;47.41;99671.28;5047726;28;20029;-62
2023/09/12 08:55:06;;;;;;;0.00;0.00;;;;;;;33.24;45.33;99675.47;5056185;28;20051;-62
2023/09/12 08:57:35;;;;;;;0.00;0.00;;;;;;;33.44;46.01;99679.25;5067286;28;20064;-62
2023/09/12 09:00:14;;;;;;;0.00;0.00;;;;;;;33.59;46.16;99673.56;5063003;28;20365;-62
2023/09/12 09:02:40;;;;;;;0.00;0.00;;;;;;;33.90;44.56;99680.28;5059529;28;20491;-63
2023/09/12 09:05:08;;;;;;;0.00;0.00;;;;;;;33.83;44.37;99673.03;5046493;28;20029;-63
2023/09/12 09:07:39;;;;;;;0.00;0.00;;;;;;;34.10;45.27;99683.16;5049121;28;20112;-62
2023/09/12 09:10:07;;;;;;;0.00;0.00;;;;;;;34.34;44.31;99677.03;5055340;28;20025;-62
2023/09/12 09:12:33;;;;;;;0.00;0.00;;;;;;;34.58;43.78;99676.47;5029414;28;20057;-62
2023/09/12 09:14:59;;;;;;;0.00;0.00;;;;;;;34.59;43.29;99678.16;5069106;28;20035;-62
2023/09/12 09:17:26;;;;;;;0.00;0.00;;;;;;;34.47;44.51;99683.47;5068209;28;20438;-62
2023/09/12 09:19:51;;;;;;;0.00;0.00;;;;;;;34.90;44.12;99683.91;5051761;28;20025;-63
2023/09/12 09:22:17;;;;;;;0.00;0.00;;;;;;;35.31;42.81;99680.88;5049707;28;20498;-63
2023/09/12 09:24:42;;;;;;;0.00;0.00;;;;;;;35.61;42.60;99677.41;5050893;28;20115;-63
2023/09/12 09:27:07;;;;;;;0.00;0.00;;;;;;;35.41;42.37;99678.53;5050012;28;20793;-63
2023/09/12 09:29:48;;;;;;;0.00;0.00;;;;;;;35.67;42.41;99676.53;5050229;28;20033;-62
2023/09/12 09:32:21;;;;;;;0.00;0.00;;;;;;;35.82;41.67;99678.19;5050618;28;20032;-64
2023/09/12 09:34:47;;;;;;;0.00;0.00;;;;;;;35.63;42.26;99677.19;5047829;28;20507;-63
2023/09/12 09:37:14;;;;;;;0.00;0.00;;;;;;;35.49;42.84;99689.38;5035460;28;20028;-63
2023/09/12 09:39:40;;;;;;;0.00;0.00;;;;;;;35.12;42.82;99682.63;5056233;28;20407;-63
2023/09/12 09:42:11;;;;;;;0.00;0.00;;;;;;;35.40;42.89;99686.00;5065328;28;20372;-63
2023/09/12 09:44:37;;;;;;;0.00;0.00;;;;;;;35.83;40.66;99685.41;5056686;28;20017;-63
2023/09/12 09:47:02;;;;;;;0.00;0.00;;;;;;;35.91;40.67;99682.44;5030811;28;20032;-63
2023/09/12 09:49:31;;;;;;;0.00;0.00;;;;;;;36.35;39.74;99679.63;5049984;28;20033;-63
2023/09/12 09:51:59;;;;;;;0.00;0.00;;;;;;;36.67;39.34;99673.00;5067660;28;20032;-63
2023/09/12 09:54:25;;;;;;;0.00;0.00;;;;;;;36.64;38.79;99656.84;5055140;28;20036;-63
2023/09/12 09:56:57;;;;;;;0.00;0.00;;;;;;;36.60;37.59;99666.66;5049590;28;20044;-63
2023/09/12 09:59:27;;;;;;;0.00;0.00;;;;;;;36.67;39.25;99661.94;5051546;28;20040;-63
2023/09/12 10:01:57;;;;;;;0.00;0.00;;;;;;;36.79;38.70;99655.44;5048522;28;20452;-63
2023/09/12 10:04:24;;;;;;;0.00;0.00;;;;;;;36.55;40.68;99653.50;5053852;28;20466;-63
2023/09/12 10:06:49;;;;;;;0.00;0.00;;;;;;;36.48;40.72;99646.28;5058405;28;20028;-63
2023/09/12 10:09:16;;;;;;;0.00;0.00;;;;;;;36.61;40.40;99646.19;5053986;28;20630;-63
2023/09/12 10:11:47;;;;;;;0.00;0.00;;;;;;;36.73;40.56;99639.69;5050571;28;20067;-63
2023/09/12 10:14:15;;;;;;;0.00;0.00;;;;;;;37.17;39.94;99652.50;5055954;28;20559;-63
2023/09/12 10:16:46;;;;;;;0.00;0.00;;;;;;;37.64;38.25;99648.16;5049179;28;20107;-63
2023/09/12 10:19:35;;;;;;;0.00;0.00;;;;;;;37.59;38.81;99651.63;5061265;28;20436;-62
2023/09/12 10:22:00;;;;;;;0.00;0.00;;;;;;;36.80;39.50;99639.66;5057163;28;20021;-62
2023/09/12 10:24:28;;;;;;;0.00;0.00;;;;;;;36.88;41.65;99643.00;5048839;28;20509;-64
2023/09/12 10:26:55;;;;;;;0.00;0.00;;;;;;;37.14;40.09;99644.63;5049855;28;20025;-63
2023/09/12 10:29:22;;;;;;;0.00;0.00;;;;;;;37.50;39.39;99639.13;5052811;28;20036;-63
2023/09/12 10:31:48;;;;;;;0.00;0.00;;;;;;;37.81;37.09;99638.97;5048487;28;20502;-63
2023/09/12 10:34:15;;;;;;;0.00;0.00;;;;;;;37.72;37.42;99633.97;5048235;28;20224;-63
2023/09/12 10:36:42;;;;;;;0.00;0.00;;;;;;;37.72;37.36;99632.06;5055521;28;20111;-63
2023/09/12 10:39:10;;;;;;;0.00;0.00;;;;;;;37.74;37.00;99627.13;5066042;28;20029;-63
2023/09/12 10:41:37;;;;;;;0.00;0.00;;;;;;;37.73;37.33;99628.19;5060606;28;20094;-63
2023/09/12 10:44:09;;;;;;;0.00;0.00;;;;;;;37.50;37.63;99635.50;5067438;28;20488;-63
2023/09/12 10:46:38;;;;;;;0.00;0.00;;;;;;;37.29;38.13;99631.28;5065126;28;20043;-63
2023/09/12 10:49:06;;;;;;;0.00;0.00;;;;;;;37.53;39.38;99632.28;5053605;28;20457;-63
2023/09/12 10:51:32;;;;;;;0.00;0.00;;;;;;;37.59;36.61;99623.88;5052405;28;20036;-63
2023/09/12 10:53:57;;;;;;;0.00;0.00;;;;;;;37.60;37.84;99625.56;5052595;28;20090;-63
2023/09/12 10:56:29;;;;;;;0.00;0.00;;;;;;;37.66;37.02;99629.34;5050066;28;20435;-63
2023/09/12 10:59:06;;;;;;;0.00;0.00;;;;;;;38.04;37.58;99621.59;5048844;28;20128;-63
2023/09/12 11:01:40;;;;;;;0.00;0.00;;;;;;;38.28;34.36;99619.72;5062421;28;20068;-64
2023/09/12 11:04:20;;;;;;;0.00;0.00;;;;;;;38.39;35.42;99618.94;5058686;28;20344;-63
2023/09/12 11:06:50;;;;;;;0.00;0.00;;;;;;;38.36;34.23;99611.91;5058623;28;20423;-64
2023/09/12 11:09:22;;;;;;;0.00;0.00;;;;;;;38.52;35.14;99610.38;5059042;28;20542;-63
2023/09/12 11:12:02;;;;;;;0.00;0.00;;;;;;;38.55;33.21;99621.00;5050717;28;20055;-63
2023/09/12 11:14:27;;;;;;;0.00;0.00;;;;;;;38.44;34.28;99624.63;5046820;28;20426;-63
2023/09/12 11:17:08;;;;;;;0.00;0.00;;;;;;;38.69;33.60;99615.00;5051141;28;20099;-63
2023/09/12 11:19:44;;;;;;;0.00;0.00;;;;;;;39.09;33.61;99604.03;5047247;28;20025;-63
2023/09/12 11:22:27;;;;;;;0.00;0.00;;;;;;;39.45;32.57;99606.53;5056487;28;20029;-63
2023/09/12 11:24:53;;;;;;;;;;;;;;;39.43;32.45;99614.25;5064506;28;20039;-62
2023/09/12 11:27:19;;;;;;;0.00;0.00;;;;;;;39.53;32.42;99605.31;5051755;28;19912;-63